sensor_id;sensor_type;location;lat;lon;timestamp;pressure;altitude;pressure_sealevel;temperature;humidity
74230;BME280;62589;12.568;99.958;2023-12-14T00:02:05;100974.56;;;33.42;54.54
74230;BME280;62589;12.568;99.958;2023-12-14T00:04:32;100986.50;;;33.46;55.01
74230;BME280;62589;12.568;99.958;2023-12-14T00:06:58;100987.72;;;33.49;54.44
74230;BME280;62589;12.568;99.958;2023-12-14T00:09:25;100994.13;;;33.53;54.28
74230;BME280;62589;12.568;99.958;2023-12-14T00:11:51;101002.13;;;33.58;54.57
74230;BME280;62589;12.568;99.958;2023-12-14T00:14:18;101009.72;;;33.65;54.63
74230;BME280;62589;12.568;99.958;2023-12-14T00:16:44;101009.34;;;33.70;54.21
74230;BME280;62589;12.568;99.958;2023-12-14T00:19:10;101018.13;;;33.75;54.12
74230;BME280;62589;12.568;99.958;2023-12-14T00:21:37;101022.56;;;33.80;53.53
74230;BME280;62589;12.568;99.958;2023-12-14T00:24:03;101026.59;;;33.86;53.32
74230;BME280;62589;12.568;99.958;2023-12-14T00:26:30;101029.78;;;33.92;53.43
74230;BME280;62589;12.568;99.958;2023-12-14T00:28:56;101032.22;;;33.97;53.49
74230;BME280;62589;12.568;99.958;2023-12-14T00:31:23;101036.22;;;34.03;53.01
74230;BME280;62589;12.568;99.958;2023-12-14T00:33:49;101039.03;;;34.10;52.99
74230;BME280;62589;12.568;99.958;2023-12-14T00:36:19;101047.84;;;34.19;52.91
74230;BME280;62589;12.568;99.958;2023-12-14T00:38:46;101050.66;;;34.26;52.89
74230;BME280;62589;12.568;99.958;2023-12-14T00:41:12;101055.09;;;34.34;52.73
74230;BME280;62589;12.568;99.958;2023-12-14T00:43:39;101050.75;;;34.40;52.78
74230;BME280;62589;12.568;99.958;2023-12-14T00:46:05;101064.72;;;34.47;52.09
74230;BME280;62589;12.568;99.958;2023-12-14T00:48:32;101061.16;;;34.54;52.23
74230;BME280;62589;12.568;99.958;2023-12-14T00:50:58;101075.91;;;34.62;51.93
74230;BME280;62589;12.568;99.958;2023-12-14T00:53:24;101077.94;;;34.72;51.80
74230;BME280;62589;12.568;99.958;2023-12-14T00:55:51;101089.56;;;34.81;51.68
74230;BME280;62589;12.568;99.958;2023-12-14T00:58:18;101088.78;;;34.88;51.60
74230;BME280;62589;12.568;99.958;2023-12-14T01:00:44;101082.00;;;34.96;51.16
74230;BME280;62589;12.568;99.958;2023-12-14T01:03:11;101097.97;;;35.06;51.04
74230;BME280;62589;12.568;99.958;2023-12-14T01:05:38;101102.75;;;35.16;51.02
74230;BME280;62589;12.568;99.958;2023-12-14T01:08:04;101107.16;;;35.21;50.83
74230;BME280;62589;12.568;99.958;2023-12-14T01:10:31;101113.59;;;35.28;50.63
74230;BME280;62589;12.568;99.958;2023-12-14T01:12:59;101118.75;;;35.37;50.47
74230;BME280;62589;12.568;99.958;2023-12-14T01:15:25;101116.38;;;35.42;50.00
74230;BME280;62589;12.568;99.958;2023-12-14T01:17:52;101129.56;;;35.53;50.02
74230;BME280;62589;12.568;99.958;2023-12-14T01:20:18;101127.16;;;35.62;49.82
74230;BME280;62589;12.568;99.958;2023-12-14T01:22:45;101131.16;;;35.71;49.68
74230;BME280;62589;12.568;99.958;2023-12-14T01:25:11;101130.75;;;35.80;49.68
74230;BME280;62589;12.568;99.958;2023-12-14T01:27:38;101131.97;;;35.90;49.87
74230;BME280;62589;12.568;99.958;2023-12-14T01:30:04;101137.13;;;36.02;49.50
74230;BME280;62589;12.568;99.958;2023-12-14T01:32:31;101132.72;;;36.11;49.44
74230;BME280;62589;12.568;99.958;2023-12-14T01:34:58;101141.88;;;36.19;48.87
74230;BME280;62589;12.568;99.958;2023-12-14T01:37:24;101145.09;;;36.25;48.45
74230;BME280;62589;12.568;99.958;2023-12-14T01:39:51;101146.28;;;36.34;47.68
74230;BME280;62589;12.568;99.958;2023-12-14T01:42:17;101152.63;;;36.38;47.25
74230;BME280;62589;12.568;99.958;2023-12-14T01:44:44;101149.03;;;36.45;46.88
74230;BME280;62589;12.568;99.958;2023-12-14T01:47:10;101157.00;;;36.50;46.63
74230;BME280;62589;12.568;99.958;2023-12-14T01:49:36;101157.00;;;36.57;46.53
74230;BME280;62589;12.568;99.958;2023-12-14T01:52:03;101158.94;;;36.67;45.88
74230;BME280;62589;12.568;99.958;2023-12-14T01:54:30;101161.72;;;36.74;45.84
74230;BME280;62589;12.568;99.958;2023-12-14T01:56:56;101161.69;;;36.81;45.84
74230;BME280;62589;12.568;99.958;2023-12-14T01:59:23;101164.88;;;36.87;45.37
74230;BME280;62589;12.568;99.958;2023-12-14T02:01:53;101171.25;;;36.91;45.15
74230;BME280;62589;12.568;99.958;2023-12-14T02:04:23;101161.56;;;37.03;45.43
74230;BME280;62589;12.568;99.958;2023-12-14T02:06:51;101170.75;;;37.10;45.24
74230;BME280;62589;12.568;99.958;2023-12-14T02:09:17;101167.50;;;37.15;45.36
74230;BME280;62589;12.568;99.958;2023-12-14T02:11:44;101170.66;;;37.25;44.74
74230;BME280;62589;12.568;99.958;2023-12-14T02:14:12;101175.81;;;37.33;45.23
74230;BME280;62589;12.568;99.958;2023-12-14T02:16:39;101175.78;;;37.40;44.89
74230;BME280;62589;12.568;99.958;2023-12-14T02:19:06;101175.31;;;37.49;44.79
74230;BME280;62589;12.568;99.958;2023-12-14T02:21:32;101186.50;;;37.53;44.23
74230;BME280;62589;12.568;99.958;2023-12-14T02:23:59;101184.44;;;37.60;44.05
74230;BME280;62589;12.568;99.958;2023-12-14T02:26:25;101181.59;;;37.64;43.54
74230;BME280;62589;12.568;99.958;2023-12-14T02:28:52;101182.38;;;37.71;43.32
74230;BME280;62589;12.568;99.958;2023-12-14T02:31:19;101174.72;;;37.75;42.99
74230;BME280;62589;12.568;99.958;2023-12-14T02:33:46;101189.03;;;37.84;42.87
74230;BME280;62589;12.568;99.958;2023-12-14T02:36:12;101186.56;;;37.94;43.15
74230;BME280;62589;12.568;99.958;2023-12-14T02:38:39;101182.91;;;38.00;43.25
74230;BME280;62589;12.568;99.958;2023-12-14T02:41:05;101180.06;;;38.04;42.43
74230;BME280;62589;12.568;99.958;2023-12-14T02:43:32;101180.81;;;38.11;42.48
74230;BME280;62589;12.568;99.958;2023-12-14T02:45:59;101178.81;;;38.12;42.46
74230;BME280;62589;12.568;99.958;2023-12-14T02:48:28;101185.97;;;38.16;42.15
74230;BME280;62589;12.568;99.958;2023-12-14T02:50:58;101187.94;;;38.23;41.99
74230;BME280;62589;12.568;99.958;2023-12-14T02:53:26;101197.06;;;38.27;41.75
74230;BME280;62589;12.568;99.958;2023-12-14T02:55:52;101206.63;;;38.33;42.01
74230;BME280;62589;12.568;99.958;2023-12-14T02:58:19;101200.59;;;38.38;42.10
74230;BME280;62589;12.568;99.958;2023-12-14T03:00:45;101209.69;;;38.46;42.69
74230;BME280;62589;12.568;99.958;2023-12-14T03:03:12;101195.25;;;38.47;41.93
74230;BME280;62589;12.568;99.958;2023-12-14T03:05:38;101193.59;;;38.54;41.48
74230;BME280;62589;12.568;99.958;2023-12-14T03:08:05;101199.94;;;38.61;42.18
74230;BME280;62589;12.568;99.958;2023-12-14T03:10:31;101195.91;;;38.66;41.46
74230;BME280;62589;12.568;99.958;2023-12-14T03:12:58;101189.41;;;38.69;41.52
74230;BME280;62589;12.568;99.958;2023-12-14T03:15:24;101188.13;;;38.77;41.64
74230;BME280;62589;12.568;99.958;2023-12-14T03:17:51;101189.63;;;38.85;41.14
74230;BME280;62589;12.568;99.958;2023-12-14T03:20:17;101188.34;;;38.90;41.02
74230;BME280;62589;12.568;99.958;2023-12-14T03:22:43;101188.31;;;38.93;41.12
74230;BME280;62589;12.568;99.958;2023-12-14T03:25:10;101187.84;;;38.98;40.96
74230;BME280;62589;12.568;99.958;2023-12-14T03:27:36;101182.63;;;39.00;40.49
74230;BME280;62589;12.568;99.958;2023-12-14T03:30:03;101189.00;;;39.04;40.81
74230;BME280;62589;12.568;99.958;2023-12-14T03:32:34;101184.66;;;39.00;40.80
74230;BME280;62589;12.568;99.958;2023-12-14T03:35:00;101188.94;;;39.08;41.12
74230;BME280;62589;12.568;99.958;2023-12-14T03:37:26;101186.88;;;39.12;40.76
74230;BME280;62589;12.568;99.958;2023-12-14T03:39:53;101177.22;;;39.13;40.57
74230;BME280;62589;12.568;99.958;2023-12-14T03:42:19;101185.97;;;39.18;40.52
74230;BME280;62589;12.568;99.958;2023-12-14T03:44:47;101183.13;;;39.22;40.44
74230;BME280;62589;12.568;99.958;2023-12-14T03:47:13;101185.00;;;39.29;41.10
74230;BME280;62589;12.568;99.958;2023-12-14T03:49:40;101181.72;;;39.34;40.42
74230;BME280;62589;12.568;99.958;2023-12-14T03:52:07;101174.53;;;39.33;40.46
74230;BME280;62589;12.568;99.958;2023-12-14T03:54:34;101175.28;;;39.37;40.25
74230;BME280;62589;12.568;99.958;2023-12-14T03:57:01;101171.25;;;39.38;40.53
74230;BME280;62589;12.568;99.958;2023-12-14T03:59:27;101177.19;;;39.43;40.25
74230;BME280;62589;12.568;99.958;2023-12-14T04:01:53;101170.31;;;39.48;39.70
74230;BME280;62589;12.568;99.958;2023-12-14T04:04:20;101168.59;;;39.54;39.57
74230;BME280;62589;12.568;99.958;2023-12-14T04:06:46;101167.38;;;39.55;38.83
74230;BME280;62589;12.568;99.958;2023-12-14T04:09:13;101170.97;;;39.56;38.51
74230;BME280;62589;12.568;99.958;2023-12-14T04:11:39;101174.59;;;39.56;38.43
74230;BME280;62589;12.568;99.958;2023-12-14T04:14:06;101170.94;;;39.59;38.72
74230;BME280;62589;12.568;99.958;2023-12-14T04:16:32;101168.50;;;39.61;38.37
74230;BME280;62589;12.568;99.958;2023-12-14T04:18:59;101162.75;;;39.68;38.80
74230;BME280;62589;12.568;99.958;2023-12-14T04:21:25;101158.63;;;39.73;38.77
74230;BME280;62589;12.568;99.958;2023-12-14T04:23:52;101165.78;;;39.77;38.86
74230;BME280;62589;12.568;99.958;2023-12-14T04:26:18;101157.69;;;39.83;38.81
74230;BME280;62589;12.568;99.958;2023-12-14T04:28:44;101152.84;;;39.83;38.56
74230;BME280;62589;12.568;99.958;2023-12-14T04:31:12;101151.63;;;39.84;38.22
74230;BME280;62589;12.568;99.958;2023-12-14T04:33:38;101152.00;;;39.87;38.04
74230;BME280;62589;12.568;99.958;2023-12-14T04:36:06;101140.00;;;39.82;38.20
74230;BME280;62589;12.568;99.958;2023-12-14T04:38:33;101136.41;;;39.82;38.11
74230;BME280;62589;12.568;99.958;2023-12-14T04:41:00;101131.16;;;39.84;38.02
74230;BME280;62589;12.568;99.958;2023-12-14T04:43:26;101134.75;;;39.84;38.32
74230;BME280;62589;12.568;99.958;2023-12-14T04:45:55;101124.28;;;39.89;37.71
74230;BME280;62589;12.568;99.958;2023-12-14T04:48:22;101122.25;;;39.89;38.00
74230;BME280;62589;12.568;99.958;2023-12-14T04:50:48;101122.59;;;39.91;37.97
74230;BME280;62589;12.568;99.958;2023-12-14T04:53:15;101114.16;;;39.91;37.85
74230;BME280;62589;12.568;99.958;2023-12-14T04:55:43;101110.06;;;39.96;37.94
74230;BME280;62589;12.568;99.958;2023-12-14T04:58:09;101106.47;;;39.95;38.42
74230;BME280;62589;12.568;99.958;2023-12-14T05:00:36;101097.97;;;39.99;38.19
74230;BME280;62589;12.568;99.958;2023-12-14T05:03:02;101096.38;;;39.98;38.06
74230;BME280;62589;12.568;99.958;2023-12-14T05:05:29;101089.16;;;39.97;37.54
74230;BME280;62589;12.568;99.958;2023-12-14T05:07:55;101083.91;;;39.99;37.82
74230;BME280;62589;12.568;99.958;2023-12-14T05:10:21;101084.34;;;39.97;38.01
74230;BME280;62589;12.568;99.958;2023-12-14T05:12:48;101081.47;;;40.01;38.12
74230;BME280;62589;12.568;99.958;2023-12-14T05:15:14;101061.41;;;39.99;37.68
74230;BME280;62589;12.568;99.958;2023-12-14T05:17:41;101068.63;;;40.00;37.96
74230;BME280;62589;12.568;99.958;2023-12-14T05:20:11;101062.69;;;39.94;37.71
74230;BME280;62589;12.568;99.958;2023-12-14T05:22:37;101048.16;;;39.99;37.94
74230;BME280;62589;12.568;99.958;2023-12-14T05:25:04;101041.66;;;40.02;38.26
74230;BME280;62589;12.568;99.958;2023-12-14T05:27:31;101033.59;;;40.04;38.02
74230;BME280;62589;12.568;99.958;2023-12-14T05:29:57;101042.81;;;40.05;38.03
74230;BME280;62589;12.568;99.958;2023-12-14T05:32:23;101033.97;;;40.06;38.08
74230;BME280;62589;12.568;99.958;2023-12-14T05:34:50;101032.78;;;40.04;37.98
74230;BME280;62589;12.568;99.958;2023-12-14T05:37:16;101030.00;;;40.04;38.23
74230;BME280;62589;12.568;99.958;2023-12-14T05:39:43;101022.28;;;40.08;38.24
74230;BME280;62589;12.568;99.958;2023-12-14T05:54:50;100990.63;;;40.04;39.04
74230;BME280;62589;12.568;99.958;2023-12-14T05:57:17;100978.78;;;40.12;38.91
74230;BME280;62589;12.568;99.958;2023-12-14T05:59:43;100979.56;;;40.13;38.64
74230;BME280;62589;12.568;99.958;2023-12-14T06:02:10;100988.28;;;40.18;38.54
74230;BME280;62589;12.568;99.958;2023-12-14T06:04:36;100979.41;;;40.20;38.56
74230;BME280;62589;12.568;99.958;2023-12-14T06:07:03;100974.88;;;40.26;38.29
74230;BME280;62589;12.568;99.958;2023-12-14T06:09:29;100974.38;;;40.31;38.81
74230;BME280;62589;12.568;99.958;2023-12-14T06:12:01;100968.81;;;40.28;38.54
74230;BME280;62589;12.568;99.958;2023-12-14T06:14:28;100960.72;;;40.30;38.43
74230;BME280;62589;12.568;99.958;2023-12-14T06:16:55;100959.09;;;40.32;38.54
74230;BME280;62589;12.568;99.958;2023-12-14T06:19:22;100955.91;;;40.30;38.24
74230;BME280;62589;12.568;99.958;2023-12-14T06:21:48;100944.66;;;40.30;37.47
74230;BME280;62589;12.568;99.958;2023-12-14T06:24:15;100937.44;;;40.29;37.62
74230;BME280;62589;12.568;99.958;2023-12-14T06:26:42;100932.69;;;40.26;37.19
74230;BME280;62589;12.568;99.958;2023-12-14T06:29:10;100929.06;;;40.26;36.94
74230;BME280;62589;12.568;99.958;2023-12-14T06:31:38;100925.47;;;40.25;37.22
74230;BME280;62589;12.568;99.958;2023-12-14T06:34:05;100919.84;;;40.25;36.90
74230;BME280;62589;12.568;99.958;2023-12-14T06:36:33;100919.13;;;40.21;36.71
74230;BME280;62589;12.568;99.958;2023-12-14T06:39:00;100910.31;;;40.19;36.71
74230;BME280;62589;12.568;99.958;2023-12-14T06:41:28;100909.09;;;40.20;37.34
74230;BME280;62589;12.568;99.958;2023-12-14T06:43:55;100909.09;;;40.20;36.96
74230;BME280;62589;12.568;99.958;2023-12-14T06:46:21;100900.81;;;40.13;36.93
74230;BME280;62589;12.568;99.958;2023-12-14T06:48:49;100907.16;;;40.17;37.28
74230;BME280;62589;12.568;99.958;2023-12-14T06:51:16;100897.50;;;40.18;37.42
74230;BME280;62589;12.568;99.958;2023-12-14T06:53:43;100896.41;;;40.12;37.08
74230;BME280;62589;12.568;99.958;2023-12-14T06:56:11;100889.50;;;40.16;37.38
74230;BME280;62589;12.568;99.958;2023-12-14T06:58:43;100889.84;;;40.18;37.36
74230;BME280;62589;12.568;99.958;2023-12-14T07:01:17;100871.75;;;40.19;37.58
74230;BME280;62589;12.568;99.958;2023-12-14T07:03:44;100871.47;;;40.14;37.36
74230;BME280;62589;12.568;99.958;2023-12-14T07:06:18;100881.13;;;40.13;36.83
74230;BME280;62589;12.568;99.958;2023-12-14T07:08:44;100876.31;;;40.13;36.73
74230;BME280;62589;12.568;99.958;2023-12-14T07:11:11;100876.72;;;40.12;36.78
74230;BME280;62589;12.568;99.958;2023-12-14T07:13:38;100865.47;;;40.12;37.63
74230;BME280;62589;12.568;99.958;2023-12-14T07:16:10;100873.06;;;40.15;37.62
74230;BME280;62589;12.568;99.958;2023-12-14T07:18:37;100863.03;;;40.14;37.52
74230;BME280;62589;12.568;99.958;2023-12-14T07:21:05;100875.97;;;40.11;36.59
74230;BME280;62589;12.568;99.958;2023-12-14T07:23:33;100864.25;;;40.13;36.98
74230;BME280;62589;12.568;99.958;2023-12-14T07:26:00;100864.00;;;40.07;36.40
74230;BME280;62589;12.568;99.958;2023-12-14T07:28:27;100859.25;;;40.04;36.45
74230;BME280;62589;12.568;99.958;2023-12-14T07:30:53;100858.75;;;40.09;37.27
74230;BME280;62589;12.568;99.958;2023-12-14T07:33:20;100846.34;;;40.07;37.52
74230;BME280;62589;12.568;99.958;2023-12-14T07:35:46;100852.75;;;40.07;37.65
74230;BME280;62589;12.568;99.958;2023-12-14T07:38:13;100847.22;;;40.04;37.52
74230;BME280;62589;12.568;99.958;2023-12-14T07:40:40;100855.22;;;40.05;37.30
74230;BME280;62589;12.568;99.958;2023-12-14T07:43:07;100849.59;;;40.05;37.64
74230;BME280;62589;12.568;99.958;2023-12-14T07:45:34;100843.97;;;40.05;37.64
74230;BME280;62589;12.568;99.958;2023-12-14T07:48:00;100845.63;;;40.03;37.75
74230;BME280;62589;12.568;99.958;2023-12-14T07:50:27;100841.66;;;40.00;37.86
74230;BME280;62589;12.568;99.958;2023-12-14T07:52:53;100844.84;;;40.02;37.55
74230;BME280;62589;12.568;99.958;2023-12-14T07:55:20;100842.47;;;40.01;37.47
74230;BME280;62589;12.568;99.958;2023-12-14T07:57:46;100853.34;;;39.99;37.42
74230;BME280;62589;12.568;99.958;2023-12-14T08:00:14;100841.75;;;39.97;37.44
74230;BME280;62589;12.568;99.958;2023-12-14T08:02:40;100840.88;;;40.00;37.54
74230;BME280;62589;12.568;99.958;2023-12-14T08:05:07;100846.94;;;39.98;37.87
74230;BME280;62589;12.568;99.958;2023-12-14T08:07:35;100836.13;;;39.97;38.01
74230;BME280;62589;12.568;99.958;2023-12-14T08:10:01;100836.91;;;39.97;38.05
74230;BME280;62589;12.568;99.958;2023-12-14T08:12:28;100843.34;;;39.98;38.10
74230;BME280;62589;12.568;99.958;2023-12-14T08:14:54;100833.38;;;39.93;38.16
74230;BME280;62589;12.568;99.958;2023-12-14T08:17:20;100840.59;;;39.94;38.04
74230;BME280;62589;12.568;99.958;2023-12-14T08:19:47;100832.59;;;39.93;37.55
74230;BME280;62589;12.568;99.958;2023-12-14T08:22:13;100837.09;;;39.90;37.32
74230;BME280;62589;12.568;99.958;2023-12-14T08:24:42;100829.59;;;39.83;37.39
74230;BME280;62589;12.568;99.958;2023-12-14T08:27:09;100827.56;;;39.84;37.58
74230;BME280;62589;12.568;99.958;2023-12-14T08:29:35;100830.81;;;39.82;37.95
74230;BME280;62589;12.568;99.958;2023-12-14T08:32:02;100831.69;;;39.79;37.70
74230;BME280;62589;12.568;99.958;2023-12-14T08:34:28;100840.13;;;39.79;37.94
74230;BME280;62589;12.568;99.958;2023-12-14T08:36:55;100833.34;;;39.77;37.95
74230;BME280;62589;12.568;99.958;2023-12-14T08:39:21;100830.25;;;39.71;37.70
74230;BME280;62589;12.568;99.958;2023-12-14T08:41:48;100825.78;;;39.74;37.66
74230;BME280;62589;12.568;99.958;2023-12-14T08:44:15;100829.00;;;39.72;37.84
74230;BME280;62589;12.568;99.958;2023-12-14T08:46:43;100827.91;;;39.70;38.27
74230;BME280;62589;12.568;99.958;2023-12-14T08:49:13;100821.13;;;39.67;38.21
74230;BME280;62589;12.568;99.958;2023-12-14T08:51:41;100829.19;;;39.65;38.25
74230;BME280;62589;12.568;99.958;2023-12-14T08:54:08;100830.78;;;39.66;37.85
74230;BME280;62589;12.568;99.958;2023-12-14T08:56:35;100827.59;;;39.64;38.11
74230;BME280;62589;12.568;99.958;2023-12-14T08:59:01;100821.69;;;39.59;37.78
74230;BME280;62589;12.568;99.958;2023-12-14T09:01:29;100818.47;;;39.60;38.15
74230;BME280;62589;12.568;99.958;2023-12-14T09:03:56;100826.53;;;39.58;38.13
74230;BME280;62589;12.568;99.958;2023-12-14T09:06:22;100816.09;;;39.59;38.19
74230;BME280;62589;12.568;99.958;2023-12-14T09:08:49;100835.03;;;39.55;38.20
74230;BME280;62589;12.568;99.958;2023-12-14T09:11:15;100824.28;;;39.49;38.00
74230;BME280;62589;12.568;99.958;2023-12-14T09:13:42;100822.75;;;39.48;37.89
74230;BME280;62589;12.568;99.958;2023-12-14T09:16:09;100829.16;;;39.49;37.93
74230;BME280;62589;12.568;99.958;2023-12-14T09:18:36;100826.78;;;39.47;38.36
74230;BME280;62589;12.568;99.958;2023-12-14T09:21:02;100832.81;;;39.46;38.23
74230;BME280;62589;12.568;99.958;2023-12-14T09:23:30;100834.88;;;39.42;37.92
74230;BME280;62589;12.568;99.958;2023-12-14T09:25:56;100835.75;;;39.39;37.77
74230;BME280;62589;12.568;99.958;2023-12-14T09:28:23;100844.59;;;39.37;38.11
74230;BME280;62589;12.568;99.958;2023-12-14T09:30:50;100843.09;;;39.33;38.00
74230;BME280;62589;12.568;99.958;2023-12-14T09:33:16;100844.41;;;39.28;37.96
74230;BME280;62589;12.568;99.958;2023-12-14T09:35:42;100838.84;;;39.25;38.04
74230;BME280;62589;12.568;99.958;2023-12-14T09:38:09;100846.56;;;39.21;37.48
74230;BME280;62589;12.568;99.958;2023-12-14T09:40:36;100835.38;;;39.17;38.00
74230;BME280;62589;12.568;99.958;2023-12-14T09:43:03;100841.44;;;39.15;37.84
74230;BME280;62589;12.568;99.958;2023-12-14T09:45:30;100839.91;;;39.11;38.66
74230;BME280;62589;12.568;99.958;2023-12-14T09:47:57;100845.09;;;39.12;38.69
74230;BME280;62589;12.568;99.958;2023-12-14T09:50:25;100836.47;;;39.03;38.84
74230;BME280;62589;12.568;99.958;2023-12-14T09:52:52;100849.28;;;39.04;38.57
74230;BME280;62589;12.568;99.958;2023-12-14T09:55:18;100840.91;;;39.01;38.36
74230;BME280;62589;12.568;99.958;2023-12-14T09:57:45;100839.72;;;38.98;38.44
74230;BME280;62589;12.568;99.958;2023-12-14T10:00:12;100850.22;;;38.94;38.45
74230;BME280;62589;12.568;99.958;2023-12-14T10:02:40;100841.06;;;38.90;38.33
74230;BME280;62589;12.568;99.958;2023-12-14T10:05:10;100851.59;;;38.86;38.51
74230;BME280;62589;12.568;99.958;2023-12-14T10:07:43;100842.50;;;38.78;38.45
74230;BME280;62589;12.568;99.958;2023-12-14T10:10:11;100855.25;;;38.83;38.37
74230;BME280;62589;12.568;99.958;2023-12-14T10:12:51;100862.53;;;38.80;39.02
74230;BME280;62589;12.568;99.958;2023-12-14T10:15:19;100852.94;;;38.78;39.01
74230;BME280;62589;12.568;99.958;2023-12-14T10:17:45;100856.22;;;38.73;39.09
74230;BME280;62589;12.568;99.958;2023-12-14T10:20:22;100861.09;;;38.69;39.01
74230;BME280;62589;12.568;99.958;2023-12-14T10:22:50;100862.84;;;38.63;38.86
74230;BME280;62589;12.568;99.958;2023-12-14T10:25:18;100861.25;;;38.62;39.17
74230;BME280;62589;12.568;99.958;2023-12-14T10:27:51;100858.91;;;38.57;39.05
74230;BME280;62589;12.568;99.958;2023-12-14T10:30:20;100849.38;;;38.50;39.33
74230;BME280;62589;12.568;99.958;2023-12-14T10:32:49;100856.63;;;38.48;39.95
74230;BME280;62589;12.568;99.958;2023-12-14T10:35:19;100864.66;;;38.46;39.99
74230;BME280;62589;12.568;99.958;2023-12-14T10:37:50;100853.53;;;38.42;39.49
74230;BME280;62589;12.568;99.958;2023-12-14T10:40:17;100858.75;;;38.40;39.44
74230;BME280;62589;12.568;99.958;2023-12-14T10:42:44;100855.59;;;38.38;39.67
74230;BME280;62589;12.568;99.958;2023-12-14T10:45:12;100858.03;;;38.36;39.78
74230;BME280;62589;12.568;99.958;2023-12-14T10:47:46;100859.25;;;38.35;40.21
74230;BME280;62589;12.568;99.958;2023-12-14T10:50:14;100862.03;;;38.35;40.30
74230;BME280;62589;12.568;99.958;2023-12-14T10:52:41;100865.31;;;38.30;40.11
74230;BME280;62589;12.568;99.958;2023-12-14T10:55:15;100858.56;;;38.28;40.04
74230;BME280;62589;12.568;99.958;2023-12-14T10:57:45;100856.59;;;38.25;39.96
74230;BME280;62589;12.568;99.958;2023-12-14T11:00:12;100851.91;;;38.18;40.17
74230;BME280;62589;12.568;99.958;2023-12-14T11:02:41;100857.56;;;38.14;40.44
74230;BME280;62589;12.568;99.958;2023-12-14T11:05:15;100865.59;;;38.12;40.45
74230;BME280;62589;12.568;99.958;2023-12-14T11:10:53;100872.06;;;38.06;40.22
74230;BME280;62589;12.568;99.958;2023-12-14T11:13:24;100872.59;;;37.97;40.14
74230;BME280;62589;12.568;99.958;2023-12-14T11:15:51;100863.50;;;37.90;40.58
74230;BME280;62589;12.568;99.958;2023-12-14T11:18:22;100874.72;;;37.90;40.51
74230;BME280;62589;12.568;99.958;2023-12-14T11:20:52;100889.19;;;37.84;40.37
74230;BME280;62589;12.568;99.958;2023-12-14T11:23:32;100883.69;;;37.77;40.31
74230;BME280;62589;12.568;99.958;2023-12-14T11:26:09;100886.91;;;37.76;40.31
74230;BME280;62589;12.568;99.958;2023-12-14T11:28:39;100884.16;;;37.72;40.53
74230;BME280;62589;12.568;99.958;2023-12-14T11:31:17;100891.41;;;37.66;40.18
74230;BME280;62589;12.568;99.958;2023-12-14T11:33:46;100894.22;;;37.66;40.54
74230;BME280;62589;12.568;99.958;2023-12-14T11:36:14;100903.44;;;37.63;40.61
74230;BME280;62589;12.568;99.958;2023-12-14T11:38:41;100900.69;;;37.60;40.49
74230;BME280;62589;12.568;99.958;2023-12-14T11:41:07;100899.94;;;37.56;40.38
74230;BME280;62589;12.568;99.958;2023-12-14T11:43:41;100892.41;;;37.49;40.52
74230;BME280;62589;12.568;99.958;2023-12-14T11:46:08;100900.41;;;37.50;40.50
74230;BME280;62589;12.568;99.958;2023-12-14T11:48:35;100912.81;;;37.49;40.91
74230;BME280;62589;12.568;99.958;2023-12-14T11:51:01;100910.03;;;37.46;40.93
74230;BME280;62589;12.568;99.958;2023-12-14T11:53:30;100914.88;;;37.42;40.75
74230;BME280;62589;12.568;99.958;2023-12-14T11:55:57;100912.94;;;37.39;40.66
74230;BME280;62589;12.568;99.958;2023-12-14T11:58:24;100918.19;;;37.33;41.05
74230;BME280;62589;12.568;99.958;2023-12-14T12:00:51;100926.94;;;37.39;41.04
74230;BME280;62589;12.568;99.958;2023-12-14T12:03:19;100921.75;;;37.37;40.66
74230;BME280;62589;12.568;99.958;2023-12-14T12:05:48;100932.16;;;37.37;40.96
74230;BME280;62589;12.568;99.958;2023-12-14T12:08:17;100932.19;;;37.33;40.82
74230;BME280;62589;12.568;99.958;2023-12-14T12:10:48;100933.03;;;37.30;40.46
74230;BME280;62589;12.568;99.958;2023-12-14T12:13:17;100939.47;;;37.24;40.89
74230;BME280;62589;12.568;99.958;2023-12-14T12:15:44;100944.66;;;37.25;40.70
74230;BME280;62589;12.568;99.958;2023-12-14T12:18:12;100950.31;;;37.22;40.55
74230;BME280;62589;12.568;99.958;2023-12-14T12:20:39;100943.56;;;37.15;40.85
74230;BME280;62589;12.568;99.958;2023-12-14T12:23:06;100948.34;;;37.19;40.95
74230;BME280;62589;12.568;99.958;2023-12-14T12:25:33;100960.72;;;37.17;40.75
74230;BME280;62589;12.568;99.958;2023-12-14T12:28:01;100963.97;;;37.12;40.39
74230;BME280;62589;12.568;99.958;2023-12-14T12:30:28;100963.19;;;37.08;40.68
74230;BME280;62589;12.568;99.958;2023-12-14T12:32:55;100967.59;;;37.09;40.49
74230;BME280;62589;12.568;99.958;2023-12-14T12:35:24;100958.44;;;37.05;40.43
74230;BME280;62589;12.568;99.958;2023-12-14T12:37:51;100962.41;;;37.08;40.29
74230;BME280;62589;12.568;99.958;2023-12-14T12:40:22;100965.63;;;37.06;40.27
74230;BME280;62589;12.568;99.958;2023-12-14T12:42:49;100968.44;;;37.03;40.65
74230;BME280;62589;12.568;99.958;2023-12-14T12:45:16;100973.25;;;37.02;40.20
74230;BME280;62589;12.568;99.958;2023-12-14T12:47:44;100978.50;;;36.97;40.32
74230;BME280;62589;12.568;99.958;2023-12-14T12:50:11;100976.50;;;36.97;40.61
74230;BME280;62589;12.568;99.958;2023-12-14T12:52:38;100984.09;;;36.97;40.62
74230;BME280;62589;12.568;99.958;2023-12-14T12:55:08;100988.13;;;36.92;40.51
74230;BME280;62589;12.568;99.958;2023-12-14T12:57:36;100998.53;;;36.92;40.59